MMVR/VER METAR and TAF weather

Enter ICAO airport designator
Station Type Date Time Source
MMVR METAR 2020/09/27 00:41 UTC NOAA

MMVR 270041Z 00000KT 7SM SCT100 BKN250 27/24 A2985 RMK 8/038 HZY


Station Type Date Time Source
MMVR Decoded METAR 2020/09/27 00:41 UTC NOAA

Veracruz / Las Bajadas / General Heriberto Jara, Mexico (MMVR) 19-09N 096-11W
Sep 26, 2020 - 08:41 PM EDT / 2020.09.27 0041 UTC
Wind: Calm:0
Visibility: 7 mile(s):0
Sky conditions: mostly cloudy
Temperature: 80 F (27 C)
Dew Point: 75 F (24 C)
Relative Humidity: 83%
Pressure (altimeter): 29.85 in. Hg (1010 hPa)
ob: MMVR 270041Z 00000KT 7SM SCT100 BKN250 27/24 A2985 RMK 8/038 HZY
cycle: 0

Station Type Date Time Source
MMVR TAF 2020/09/26 18:57 UTC NOAA

TAF MMVR 261652Z 2618/2718 06010KT 5SM HZ SCT015 BKN080 TX27/2619Z TN24/2712Z
TEMPO 2702/2706 3SM TSRA BKN015CB
FM270600 26005KT 4SM -RA BR SCT010 OVC080
TEMPO 2710/2714 2SM BR HZ
FM271500 20006KT 4SM HZ SCT010 BKN100

Example: see airport list